Aviation Digital Data Service (ADDS)

Output produced by METARs form (1017 UTC 24 March 2017)
found at http://www.aviationweather.gov/adds/metars/
 
KBWI 240954Z 00000KT 10SM FEW120 SCT160 OVC250 00/M05 A3047 RMK AO2 SLP317 T00001050
KBWI 240831Z 2409/2512 17004KT P6SM FEW130 FEW250 
     FM241400 20008KT P6SM SCT100 OVC150 
     FM241900 20012G20KT P6SM BKN070 
     FM242300 20008KT P6SM SCT060 BKN150 
     FM250200 22006KT P6SM SCT060 BKN250 WS020/23035KT 
     FM250500 23006KT P6SM SCT060 BKN250
       
KMTN 240945Z 19006KT 10SM SKC 03/M03 A3049 RMK FIRST
KMTN 232324Z 2400/2424 VRB03KT P6SM SCT200 
     FM241100 16006KT P6SM BKN050 BKN130 
     FM241700 16010G18KT P6SM BKN050 BKN130 
     FM242300 16008KT P6SM SCT050 BKN130 AMD NOT SKED 2402/2412
       
KCGE 241000Z AUTO 17008KT 10SM FEW036 SCT044 BKN050 03/M02 A3050 RMK A01
KADW 240958Z AUTO 17006KT 10SM CLR 00/M04 A3046 RMK AO2 SLP324 T00041045
TAF KADW 240900Z 2409/2515 20009KT 9999 FEW100 QNH3042INS 
     BECMG 2412/2413 22012G18KT 9999 BKN080 620809 QNH3019INS 
     TEMPO 2417/2423 22015G25KT 
     BECMG 2422/2423 22009KT 9999 SCT080 QNH3019INS 
     BECMG 2511/2512 22010G15KT 9999 SCT020 BKN080 QNH3021INS TX16/2421Z TN00/2409Z
       
KCBE 241002Z AUTO 00000KT 10SM CLR 00/M04 A3035 RMK AO1
KFME 241000Z AUTO 00000KT 10SM CLR M03/M05 A3050 RMK AO1
KFDK 240955Z AUTO 18006KT 10SM CLR 02/M02 A3045 RMK AO2
KGAI 241015Z AUTO 17008KT 10SM CLR 01/M07 A3046 RMK AO1
KHGR 240953Z AUTO 16010KT 10SM CLR 03/M07 A3034 RMK AO2 SLP289 T00281067
K2W6 241001Z AUTO 19004KT 10SM CLR 01/M05 A3052 RMK AO1
K2G4 241000Z AUTO 21011KT 10SM SCT050 BKN070 BKN120 06/M04 A3023 RMK AO1
KOXB 240953Z AUTO 22008KT 10SM CLR 03/M02 A3054 RMK AO2 SLP342 T00331022
KSBY 240954Z 00000KT 10SM CLR M02/M04 A3053 RMK AO2 SLP339 T10171044 $
KSBY 240536Z 2406/2506 17005KT P6SM SKC 
     FM241400 21009KT P6SM SCT250 
     FM241600 22013G23KT P6SM BKN120 
     FM242200 20007KT P6SM SCT120
       
KW29 240955Z AUTO 20008KT 7SM CLR 04/M02 A3048 RMK AO2 TSNO
KDMW 241000Z AUTO 17011G17KT 10SM CLR 01/M05 A3038 RMK AO2